YDN weather

Dauphin Barker Airport
Dauphin, Manitoba, Canada

Public forecast

Using degrees Celsius for public forecast. Weather courtesy of forecast.io.

METAR (pilot weather report)

Retrieved 2019/07/21 06:00 UTC (20 minutes ago):

CYDN 210600Z AUTO 25003KT 9SM CLR 11/10 A3012 RMK SLP206

TAF (pilot weather forecast)

Retrieved 2019/07/21 06:45 UTC (0 seconds ago):

TAF CYDN 210543Z 2106/2118 VRB03KT P6SM FEW030 PROB30 2109/2114 1/2SM FG VV002 FM211500 34006KT P6SM SCT040 RMK FCST BASED ON AUTO OBS. NXT FCST BY 211200Z